createdAt,value
2017-01-16T00:00:25.923Z,-2.85
2017-01-16T00:01:47.951Z,-2.82
2017-01-16T00:03:10.401Z,-2.82
2017-01-16T00:04:32.044Z,-2.78
2017-01-16T00:05:53.723Z,-2.81
2017-01-16T00:07:15.358Z,-2.88
2017-01-16T00:08:37.790Z,-2.81
2017-01-16T00:09:59.853Z,-2.78
2017-01-16T00:11:22.387Z,-2.84
2017-01-16T00:12:44.046Z,-2.81
2017-01-16T00:14:06.081Z,-2.92
2017-01-16T00:15:28.508Z,-2.96
2017-01-16T00:16:50.189Z,-3.02
2017-01-16T00:18:11.888Z,-2.99
2017-01-16T00:19:34.317Z,-3.07
2017-01-16T00:20:56.041Z,-3.15
2017-01-16T00:22:18.138Z,-3.24
2017-01-16T00:23:39.814Z,-3.18
2017-01-16T00:25:02.240Z,-3.27
2017-01-16T00:26:23.499Z,-3.33
2017-01-16T00:27:45.957Z,-3.33
2017-01-16T00:29:08.429Z,-3.31
2017-01-16T00:30:30.498Z,-3.31
2017-01-16T00:31:52.216Z,-3.31
2017-01-16T00:33:14.648Z,-3.3
2017-01-16T00:34:37.708Z,-3.23
2017-01-16T00:36:00.158Z,-3.31
2017-01-16T00:37:22.596Z,-3.31
2017-01-16T00:38:45.214Z,-3.41
2017-01-16T00:40:06.875Z,-3.39
2017-01-16T00:41:27.820Z,-3.42
2017-01-16T00:42:49.856Z,-3.36
2017-01-16T00:44:12.696Z,-3.49
2017-01-16T00:45:35.277Z,-3.48
2017-01-16T00:46:57.357Z,-3.49
2017-01-16T00:48:19.159Z,-3.6
2017-01-16T00:49:41.598Z,-3.53
2017-01-16T00:51:03.809Z,-3.54
2017-01-16T00:52:25.455Z,-3.63
2017-01-16T00:53:46.755Z,-3.75
2017-01-16T00:55:09.285Z,-3.67
2017-01-16T00:56:30.604Z,-3.67
2017-01-16T00:57:52.639Z,-3.76
2017-01-16T00:59:14.271Z,-3.71
2017-01-16T01:00:35.931Z,-3.76
2017-01-16T01:01:58.085Z,-3.82
2017-01-16T01:03:19.720Z,-3.82
2017-01-16T01:04:42.194Z,-3.76
2017-01-16T01:06:04.234Z,-3.75
2017-01-16T01:07:25.864Z,-3.88
2017-01-16T01:08:47.098Z,-3.86
2017-01-16T01:10:09.128Z,-3.82
2017-01-16T01:11:31.654Z,-3.83
2017-01-16T01:12:53.707Z,-3.88
2017-01-16T01:14:15.759Z,-3.86
2017-01-16T01:15:37.532Z,-3.88
2017-01-16T01:17:00.364Z,-3.94
2017-01-16T01:18:22.448Z,-3.93
2017-01-16T01:19:44.085Z,-3.94
2017-01-16T01:21:05.764Z,-3.99
2017-01-16T01:22:27.416Z,-4.06
2017-01-16T01:23:49.157Z,-4.07
2017-01-16T01:25:10.840Z,-4.22
2017-01-16T01:26:33.275Z,-4.24
2017-01-16T01:27:55.805Z,-4.17
2017-01-16T01:29:17.499Z,-4.15
2017-01-16T01:30:39.594Z,-4.15
2017-01-16T01:32:01.284Z,-4.2
2017-01-16T01:33:23.320Z,-4.43
2017-01-16T01:34:45.369Z,-4.5
2017-01-16T01:36:07.823Z,-4.63
2017-01-16T01:37:29.478Z,-4.61
2017-01-16T01:38:52.386Z,-4.72
2017-01-16T01:40:14.030Z,-4.72
2017-01-16T01:41:36.473Z,-4.86
2017-01-16T01:42:58.646Z,-4.87
2017-01-16T01:44:20.303Z,-4.71
2017-01-16T01:45:42.743Z,-4.65
2017-01-16T01:47:05.305Z,-4.63
2017-01-16T01:48:27.734Z,-4.6
2017-01-16T01:49:50.184Z,-4.67
2017-01-16T01:51:11.843Z,-4.63
2017-01-16T01:52:33.515Z,-4.72
2017-01-16T01:53:56.080Z,-4.72
2017-01-16T01:55:18.529Z,-4.69
2017-01-16T01:56:41.045Z,-4.81
2017-01-16T01:58:03.116Z,-4.79
2017-01-16T01:59:25.150Z,-4.85
2017-01-16T02:00:46.784Z,-4.87
2017-01-16T02:02:08.137Z,-4.87
2017-01-16T02:03:30.981Z,-4.78
2017-01-16T02:04:52.617Z,-4.83
2017-01-16T02:06:14.690Z,-4.85
2017-01-16T02:07:37.185Z,-4.79
2017-01-16T02:08:58.828Z,-4.86
2017-01-16T02:10:21.353Z,-5
2017-01-16T02:11:43.050Z,-4.97
2017-01-16T02:13:05.083Z,-4.97
2017-01-16T02:14:26.760Z,-5.11
2017-01-16T02:15:48.008Z,-5.14
2017-01-16T02:17:09.707Z,-5.13
2017-01-16T02:18:31.749Z,-5.17
2017-01-16T02:19:53.775Z,-5.22
2017-01-16T02:21:16.205Z,-5.35
2017-01-16T02:22:38.253Z,-5.43
2017-01-16T02:24:00.826Z,-5.44
2017-01-16T02:25:22.553Z,-5.46
2017-01-16T02:26:44.630Z,-5.51
2017-01-16T02:28:07.262Z,-5.59
2017-01-16T02:29:29.725Z,-5.62
2017-01-16T02:30:51.365Z,-5.64
2017-01-16T02:32:13.864Z,-5.64
2017-01-16T02:33:36.315Z,-5.8
2017-01-16T02:34:57.983Z,-5.79
2017-01-16T02:36:20.558Z,-5.71
2017-01-16T02:37:42.593Z,-5.74
2017-01-16T02:39:05.042Z,-5.79
2017-01-16T02:40:27.194Z,-5.74
2017-01-16T02:41:49.904Z,-5.75
2017-01-16T02:43:11.965Z,-5.84
2017-01-16T02:44:34.925Z,-5.83
2017-01-16T02:45:57.360Z,-5.84
2017-01-16T02:47:20.210Z,-5.84
2017-01-16T02:48:42.642Z,-5.8
2017-01-16T02:50:05.103Z,-5.84
2017-01-16T02:51:26.775Z,-5.84
2017-01-16T02:52:49.622Z,-5.87
2017-01-16T02:54:11.333Z,-5.83
2017-01-16T02:55:33.779Z,-5.83
2017-01-16T02:56:55.535Z,-5.97
2017-01-16T02:58:17.584Z,-5.97
2017-01-16T02:59:40.136Z,-6.01
2017-01-16T03:01:02.644Z,-6.04
2017-01-16T03:02:25.496Z,-6.05
2017-01-16T03:03:48.365Z,-6.1
2017-01-16T03:05:10.413Z,-6.07
2017-01-16T03:06:32.035Z,-6.15
2017-01-16T03:07:54.073Z,-6.28
2017-01-16T03:09:16.102Z,-6.25
2017-01-16T03:10:37.331Z,-6.34
2017-01-16T03:11:58.973Z,-6.36
2017-01-16T03:13:21.269Z,-6.36
2017-01-16T03:14:44.115Z,-6.39
2017-01-16T03:16:06.253Z,-6.36
2017-01-16T03:17:28.744Z,-6.36
2017-01-16T03:18:50.553Z,-6.42
2017-01-16T03:20:13.147Z,-6.37
2017-01-16T03:21:35.566Z,-6.32
2017-01-16T03:22:56.815Z,-6.34
2017-01-16T03:24:19.263Z,-6.37
2017-01-16T03:25:40.617Z,-6.37
2017-01-16T03:27:01.866Z,-6.37
2017-01-16T03:28:24.304Z,-6.32
2017-01-16T03:29:46.442Z,-6.31
2017-01-16T03:31:08.512Z,-6.34
2017-01-16T03:32:29.792Z,-6.28
2017-01-16T03:33:51.874Z,-6.15
2017-01-16T03:35:14.711Z,-6.07
2017-01-16T03:36:36.883Z,-6.08
2017-01-16T03:37:58.899Z,-6.03
2017-01-16T03:39:21.463Z,-5.98
2017-01-16T03:40:43.545Z,-6.04
2017-01-16T03:42:05.217Z,-6.04
2017-01-16T03:43:26.460Z,-5.98
2017-01-16T03:44:48.102Z,-5.9
2017-01-16T03:46:10.173Z,-5.98
2017-01-16T03:47:32.239Z,-5.89
2017-01-16T03:48:54.332Z,-5.94
2017-01-16T03:50:16.383Z,-5.84
2017-01-16T03:51:38.828Z,-5.92
2017-01-16T03:53:00.981Z,-5.93
2017-01-16T03:54:22.617Z,-5.92
2017-01-16T03:55:45.036Z,-5.97
2017-01-16T03:57:07.532Z,-6.03
2017-01-16T03:58:29.975Z,-6.07
2017-01-16T03:59:52.420Z,-6
2017-01-16T04:01:14.863Z,-6.03
2017-01-16T04:02:37.413Z,-5.84
2017-01-16T04:04:00.376Z,-5.82
2017-01-16T04:05:22.398Z,-5.74
2017-01-16T04:06:44.836Z,-5.69
2017-01-16T04:08:06.653Z,-5.59
2017-01-16T04:09:28.316Z,-5.61
2017-01-16T04:10:50.926Z,-5.57
2017-01-16T04:12:13.760Z,-5.64
2017-01-16T04:13:35.494Z,-5.55
2017-01-16T04:14:57.560Z,-5.53
2017-01-16T04:16:19.414Z,-5.54
2017-01-16T04:17:41.058Z,-5.55
2017-01-16T04:19:02.685Z,-5.57
2017-01-16T04:20:24.729Z,-5.59
2017-01-16T04:21:45.991Z,-5.59
2017-01-16T04:23:07.681Z,-5.59
2017-01-16T04:24:30.292Z,-5.64
2017-01-16T04:25:52.730Z,-5.64
2017-01-16T04:27:14.798Z,-5.61
2017-01-16T04:28:37.251Z,-5.68
2017-01-16T04:29:59.280Z,-5.76
2017-01-16T04:31:21.941Z,-5.76
2017-01-16T04:32:43.579Z,-5.82
2017-01-16T04:34:05.224Z,-5.75
2017-01-16T04:35:26.915Z,-5.72
2017-01-16T04:36:48.223Z,-5.82
2017-01-16T04:38:10.265Z,-5.8
2017-01-16T04:39:32.041Z,-5.92
2017-01-16T04:40:54.080Z,-5.94
2017-01-16T04:42:16.315Z,-6.04
2017-01-16T04:43:38.416Z,-6.04
2017-01-16T04:45:00.913Z,-6.11
2017-01-16T04:46:22.972Z,-6.15
2017-01-16T04:47:45.036Z,-6.28
2017-01-16T04:49:07.140Z,-6.31
2017-01-16T04:50:29.180Z,-6.32
2017-01-16T04:51:50.459Z,-6.31
2017-01-16T04:53:13.410Z,-6.44
2017-01-16T04:54:35.541Z,-6.47
2017-01-16T04:55:57.196Z,-6.46
2017-01-16T04:57:19.689Z,-6.43
2017-01-16T04:58:42.518Z,-6.5
2017-01-16T05:00:05.116Z,-6.59
2017-01-16T05:01:27.183Z,-6.65
2017-01-16T05:02:49.337Z,-6.77
2017-01-16T05:04:11.384Z,-6.69
2017-01-16T05:05:32.758Z,-6.8
2017-01-16T05:06:55.184Z,-6.79
2017-01-16T05:08:17.888Z,-6.83
2017-01-16T05:09:40.112Z,-6.91
2017-01-16T05:11:02.151Z,-6.94
2017-01-16T05:12:24.186Z,-6.89
2017-01-16T05:13:47.012Z,-6.95
2017-01-16T05:15:08.666Z,-6.95
2017-01-16T05:16:30.792Z,-6.98
2017-01-16T05:17:52.827Z,-6.98
2017-01-16T05:19:15.113Z,-6.97
2017-01-16T05:20:36.755Z,-7.01
2017-01-16T05:21:58.398Z,-6.98
2017-01-16T05:23:20.850Z,-7.05
2017-01-16T05:24:42.109Z,-7.05
2017-01-16T05:26:04.568Z,-7.04
2017-01-16T05:27:27.086Z,-7.08
2017-01-16T05:28:49.592Z,-7.07
2017-01-16T05:30:12.039Z,-6.94
2017-01-16T05:31:34.886Z,-7.07
2017-01-16T05:32:56.657Z,-7.12
2017-01-16T05:34:19.551Z,-7.11
2017-01-16T05:35:42.419Z,-7.12
2017-01-16T05:37:04.831Z,-7.04
2017-01-16T05:38:27.266Z,-7.12
2017-01-16T05:39:49.032Z,-7.07
2017-01-16T05:41:11.476Z,-7.11
2017-01-16T05:42:34.371Z,-7.11
2017-01-16T05:43:56.980Z,-7.11
2017-01-16T05:45:19.622Z,-7.16
2017-01-16T05:46:42.454Z,-7.07
2017-01-16T05:48:04.627Z,-7.12
2017-01-16T05:49:26.723Z,-7.18
2017-01-16T05:50:48.378Z,-7.21
2017-01-16T05:52:10.813Z,-7.13
2017-01-16T05:53:32.917Z,-7.18
2017-01-16T05:54:55.359Z,-7.16
2017-01-16T05:56:18.298Z,-7.19
2017-01-16T05:57:40.706Z,-7.08
2017-01-16T05:59:03.522Z,-7.22
2017-01-16T06:00:26.410Z,-7.18
2017-01-16T06:01:48.041Z,-7.11
2017-01-16T06:03:42.374Z,-7.15
2017-01-16T06:05:04.100Z,-7.19
2017-01-16T06:06:26.185Z,-7.15
2017-01-16T06:07:49.039Z,-7.15
2017-01-16T06:09:10.319Z,-7.12
2017-01-16T06:10:32.832Z,-7.08
2017-01-16T06:11:55.329Z,-7.12
2017-01-16T06:13:17.407Z,-7.25
2017-01-16T06:14:39.860Z,-7.31
2017-01-16T06:16:02.743Z,-7.25
2017-01-16T06:17:25.184Z,-7.25
2017-01-16T06:18:47.262Z,-7.22
2017-01-16T06:20:08.598Z,-7.25
2017-01-16T06:21:30.639Z,-7.25
2017-01-16T06:22:53.487Z,-7.23
2017-01-16T06:24:15.960Z,-7.23
2017-01-16T06:25:37.611Z,-7.25
2017-01-16T06:27:00.189Z,-7.29
2017-01-16T06:28:22.255Z,-7.3
2017-01-16T06:29:43.888Z,-7.16
2017-01-16T06:31:06.370Z,-7.21
2017-01-16T06:32:28.008Z,-7.23
2017-01-16T06:33:50.469Z,-7.18
2017-01-16T06:35:12.928Z,-7.15
2017-01-16T06:36:35.043Z,-7.15
2017-01-16T06:37:57.518Z,-7.08
2017-01-16T06:39:20.388Z,-7.08
2017-01-16T06:40:42.409Z,-7.13
2017-01-16T06:42:04.488Z,-7.15
2017-01-16T06:43:26.158Z,-7.08
2017-01-16T06:44:48.618Z,-7.21
2017-01-16T06:46:11.061Z,-7.12
2017-01-16T06:47:33.532Z,-7.07
2017-01-16T06:48:56.045Z,-7.07
2017-01-16T06:50:18.896Z,-7.11
2017-01-16T06:51:41.485Z,-7.11
2017-01-16T06:53:35.834Z,-7.15
2017-01-16T06:54:57.874Z,-7.21
2017-01-16T06:56:19.538Z,-7.26
2017-01-16T06:57:41.988Z,-7.21
2017-01-16T06:59:04.040Z,-7.13
2017-01-16T07:00:26.469Z,-7.11
2017-01-16T07:01:47.319Z,-7.12
2017-01-16T07:03:09.460Z,-7.16
2017-01-16T07:04:31.898Z,-7.08
2017-01-16T07:05:53.319Z,-7.19
2017-01-16T07:07:14.968Z,-7.13
2017-01-16T07:08:37.083Z,-7.25
2017-01-16T07:09:59.613Z,-7.25
2017-01-16T07:11:21.779Z,-7.11
2017-01-16T07:12:44.222Z,-7.08
2017-01-16T07:14:06.678Z,-7.12
2017-01-16T07:16:01.503Z,-7.16
2017-01-16T07:17:23.663Z,-7.12
2017-01-16T07:18:46.134Z,-7.12
2017-01-16T07:20:08.747Z,-7.11
2017-01-16T07:21:31.228Z,-7.07
2017-01-16T07:22:55.233Z,-7.15
2017-01-16T07:24:19.404Z,-7.21
2017-01-16T07:25:43.676Z,-7.19
2017-01-16T07:27:05.725Z,-7.16
2017-01-16T07:28:27.016Z,-7.08
2017-01-16T07:29:48.259Z,-7.08
2017-01-16T07:31:09.897Z,-7.13
2017-01-16T07:32:32.342Z,-7.08
2017-01-16T07:33:54.792Z,-7.04
2017-01-16T07:35:16.863Z,-7.07
2017-01-16T07:36:38.505Z,-7.13
2017-01-16T07:38:01.120Z,-7.15
2017-01-16T07:39:23.808Z,-7.12
2017-01-16T07:40:46.249Z,-7.04
2017-01-16T07:42:08.318Z,-7.05
2017-01-16T07:43:30.452Z,-7.08
2017-01-16T07:44:52.917Z,-6.97
2017-01-16T07:46:15.559Z,-7
2017-01-16T07:47:37.642Z,-6.92
2017-01-16T07:49:00.092Z,-6.79
2017-01-16T07:50:22.924Z,-6.8
2017-01-16T07:51:45.849Z,-6.76
2017-01-16T07:53:07.883Z,-6.71
2017-01-16T07:54:30.070Z,-6.73
2017-01-16T07:55:51.781Z,-6.74
2017-01-16T07:57:14.625Z,-6.76
2017-01-16T07:58:37.195Z,-6.74
2017-01-16T07:59:59.654Z,-6.65
2017-01-16T08:01:22.293Z,-6.55
2017-01-16T08:02:44.372Z,-6.5
2017-01-16T08:04:06.805Z,-6.54
2017-01-16T08:05:29.646Z,-6.5
2017-01-16T08:06:52.096Z,-6.42
2017-01-16T08:08:14.263Z,-6.37
2017-01-16T08:09:36.713Z,-6.34
2017-01-16T08:10:58.359Z,-6.34
2017-01-16T08:12:20.404Z,-6.28
2017-01-16T08:13:43.289Z,-6.32
2017-01-16T08:15:05.326Z,-6.31
2017-01-16T08:16:27.426Z,-6.29
2017-01-16T08:17:49.487Z,-6.26
2017-01-16T08:19:12.324Z,-6.11
2017-01-16T08:20:34.799Z,-6.15
2017-01-16T08:21:56.868Z,-6.08
2017-01-16T08:23:19.363Z,-6.13
2017-01-16T08:24:41.470Z,-6.08
2017-01-16T08:26:03.517Z,-6.15
2017-01-16T08:27:25.989Z,-5.98
2017-01-16T08:28:48.413Z,-5.94
2017-01-16T08:30:10.927Z,-5.9
2017-01-16T08:31:33.019Z,-5.86
2017-01-16T08:32:55.113Z,-5.83
2017-01-16T08:34:17.989Z,-5.84
2017-01-16T08:35:40.461Z,-5.86
2017-01-16T08:37:02.512Z,-5.86
2017-01-16T08:38:24.959Z,-5.69
2017-01-16T08:39:47.240Z,-5.71
2017-01-16T08:41:10.118Z,-5.64
2017-01-16T08:42:32.558Z,-5.66
2017-01-16T08:43:54.624Z,-5.61
2017-01-16T08:45:17.064Z,-5.57
2017-01-16T08:46:38.898Z,-5.48
2017-01-16T08:48:00.931Z,-5.47
2017-01-16T08:49:22.963Z,-5.44
2017-01-16T08:50:45.908Z,-5.36
2017-01-16T08:52:07.650Z,-5.35
2017-01-16T08:53:30.096Z,-5.18
2017-01-16T08:54:52.136Z,-5.13
2017-01-16T08:56:14.977Z,-5.04
2017-01-16T08:57:37.123Z,-4.95
2017-01-16T08:58:59.165Z,-4.86
2017-01-16T09:00:22.022Z,-4.86
2017-01-16T09:01:44.201Z,-4.81
2017-01-16T09:03:06.253Z,-4.78
2017-01-16T09:04:27.912Z,-4.69
2017-01-16T09:05:50.376Z,-4.68
2017-01-16T09:07:13.241Z,-4.61
2017-01-16T09:08:34.930Z,-4.57
2017-01-16T09:09:57.410Z,-4.51
2017-01-16T09:11:20.022Z,-4.46
2017-01-16T09:12:42.176Z,-4.46
2017-01-16T09:14:04.272Z,-4.36
2017-01-16T09:15:25.905Z,-4.32
2017-01-16T09:16:47.547Z,-4.3
2017-01-16T09:18:10.021Z,-4.32
2017-01-16T09:19:32.139Z,-4.24
2017-01-16T09:20:54.231Z,-4.14
2017-01-16T09:22:15.880Z,-4.18
2017-01-16T09:23:37.507Z,-4.24
2017-01-16T09:25:00.376Z,-4.21
2017-01-16T09:26:22.807Z,-4.1
2017-01-16T09:27:44.954Z,-4.03
2017-01-16T09:29:06.999Z,-3.99
2017-01-16T09:30:29.932Z,-3.96
2017-01-16T09:31:51.967Z,-3.86
2017-01-16T09:33:14.804Z,-3.79
2017-01-16T09:34:37.271Z,-3.82
2017-01-16T09:35:59.314Z,-3.79
2017-01-16T09:37:21.783Z,-3.72
2017-01-16T09:38:44.277Z,-3.67
2017-01-16T09:40:06.731Z,-3.57
2017-01-16T09:41:28.381Z,-3.6
2017-01-16T09:42:50.827Z,-3.57
2017-01-16T09:44:12.897Z,-3.62
2017-01-16T09:45:35.510Z,-3.49
2017-01-16T09:46:58.037Z,-3.52
2017-01-16T09:48:20.895Z,-3.52
2017-01-16T09:49:43.391Z,-3.41
2017-01-16T09:51:05.442Z,-3.42
2017-01-16T09:52:27.893Z,-3.39
2017-01-16T09:53:50.730Z,-3.39
2017-01-16T09:55:12.764Z,-3.35
2017-01-16T09:56:34.825Z,-3.33
2017-01-16T09:57:56.929Z,-3.18
2017-01-16T09:59:19.810Z,-3.2
2017-01-16T10:00:42.404Z,-3.09
2017-01-16T10:02:04.044Z,-3.15
2017-01-16T10:03:26.473Z,-3.15
2017-01-16T10:04:48.515Z,-3.03
2017-01-16T10:06:11.036Z,-3.05
2017-01-16T10:07:33.472Z,-3.03
2017-01-16T10:08:55.694Z,-3.05
2017-01-16T10:10:17.983Z,-2.99
2017-01-16T10:11:40.436Z,-2.94
2017-01-16T10:13:02.471Z,-2.96
2017-01-16T10:14:25.404Z,-2.84
2017-01-16T10:15:47.756Z,-2.79
2017-01-16T10:17:09.397Z,-2.78
2017-01-16T10:18:31.449Z,-2.77
2017-01-16T10:19:53.908Z,-2.85
2017-01-16T10:21:15.606Z,-2.77
2017-01-16T10:22:36.869Z,-2.82
2017-01-16T10:23:58.535Z,-2.82
2017-01-16T10:25:19.777Z,-2.67
2017-01-16T10:26:41.084Z,-2.67
2017-01-16T10:28:03.523Z,-2.61
2017-01-16T10:29:26.014Z,-2.56
2017-01-16T10:30:48.452Z,-2.5
2017-01-16T10:32:10.638Z,-2.49
2017-01-16T10:33:33.531Z,-2.49
2017-01-16T10:34:54.393Z,-2.46
2017-01-16T10:36:16.037Z,-2.46
2017-01-16T10:37:38.475Z,-2.3
2017-01-16T10:39:01.310Z,-2.27
2017-01-16T10:40:23.025Z,-2.24
2017-01-16T10:41:44.445Z,-2.21
2017-01-16T10:43:07.337Z,-2.27
2017-01-16T10:44:29.524Z,-2.18
2017-01-16T10:45:52.386Z,-2.12
2017-01-16T10:47:14.439Z,-2.09
2017-01-16T10:48:36.880Z,-2.06
2017-01-16T10:49:58.514Z,-1.91
2017-01-16T10:51:19.780Z,-1.95
2017-01-16T10:52:42.248Z,-1.91
2017-01-16T10:54:04.764Z,-1.91
2017-01-16T10:55:26.839Z,-1.92
2017-01-16T10:56:49.351Z,-1.8
2017-01-16T10:58:11.809Z,-1.87
2017-01-16T10:59:33.606Z,-1.91
2017-01-16T11:00:55.768Z,-1.72
2017-01-16T11:02:18.618Z,-1.74
2017-01-16T11:04:13.451Z,-1.67
2017-01-16T11:05:36.370Z,-1.62
2017-01-16T11:06:58.419Z,-1.56
2017-01-16T11:08:21.268Z,-1.51
2017-01-16T11:09:43.369Z,-1.49
2017-01-16T11:11:05.827Z,-1.56
2017-01-16T11:12:28.677Z,-1.46
2017-01-16T11:13:51.585Z,-1.46
2017-01-16T11:15:14.424Z,-1.48
2017-01-16T11:16:36.917Z,-1.38
2017-01-16T11:17:59.818Z,-1.31
2017-01-16T11:19:21.074Z,-1.3
2017-01-16T11:20:43.139Z,-1.27
2017-01-16T11:22:05.181Z,-1.2
2017-01-16T11:23:26.816Z,-1.1
2017-01-16T11:24:48.512Z,-1.15
2017-01-16T11:26:11.348Z,-1.02
2017-01-16T11:27:33.791Z,-0.98
2017-01-16T11:28:56.715Z,-1.07
2017-01-16T11:30:18.356Z,-1.02
2017-01-16T11:31:40.799Z,-0.94
2017-01-16T11:33:03.645Z,-1.04
2017-01-16T11:34:26.573Z,-1.01
2017-01-16T11:35:49.417Z,-0.97
2017-01-16T11:37:11.763Z,-0.83
2017-01-16T11:38:34.622Z,-0.85
2017-01-16T11:39:57.049Z,-0.85
2017-01-16T11:41:19.703Z,-0.76
2017-01-16T11:42:41.815Z,-0.72
2017-01-16T11:44:04.257Z,-0.73
2017-01-16T11:45:27.133Z,-0.72
2017-01-16T11:46:49.586Z,-0.65
2017-01-16T11:48:11.650Z,-0.7
2017-01-16T11:49:34.164Z,-0.72
2017-01-16T11:50:56.605Z,-0.6
2017-01-16T11:52:17.890Z,-0.72
2017-01-16T11:53:40.350Z,-0.65
2017-01-16T11:55:02.403Z,-0.65
2017-01-16T11:56:24.472Z,-0.62
2017-01-16T11:57:46.915Z,-0.57
2017-01-16T11:59:09.943Z,-0.57
2017-01-16T12:00:31.593Z,-0.57
2017-01-16T12:01:52.846Z,-0.52
2017-01-16T12:03:14.909Z,-0.49
2017-01-16T12:04:36.618Z,-0.49
2017-01-16T12:05:58.775Z,-0.49
2017-01-16T12:07:20.481Z,-0.47
2017-01-16T12:08:42.221Z,-0.52
2017-01-16T12:10:04.277Z,-0.44
2017-01-16T12:11:25.656Z,-0.54
2017-01-16T12:12:47.317Z,-0.37
2017-01-16T12:14:09.872Z,-0.37
2017-01-16T12:15:31.521Z,-0.39
2017-01-16T12:16:53.592Z,-0.36
2017-01-16T12:18:15.697Z,-0.36
2017-01-16T12:19:37.815Z,-0.31
2017-01-16T12:21:00.283Z,-0.33
2017-01-16T12:22:22.338Z,-0.25
2017-01-16T12:23:45.179Z,-0.26
2017-01-16T12:25:06.445Z,-0.25
2017-01-16T12:26:28.155Z,-0.11
2017-01-16T12:27:49.413Z,-0.16
2017-01-16T12:29:12.349Z,-0.18
2017-01-16T12:30:34.813Z,-0.1
2017-01-16T12:31:56.982Z,-0.05
2017-01-16T12:33:18.640Z,-0.15
2017-01-16T12:34:40.288Z,-0.14
2017-01-16T12:36:02.857Z,-0.11
2017-01-16T12:37:24.111Z,-0.15
2017-01-16T12:38:46.271Z,-0.16
2017-01-16T12:40:08.775Z,-0.08
2017-01-16T12:41:30.857Z,-0.07
2017-01-16T12:42:53.791Z,-0.07
2017-01-16T12:44:16.218Z,-0.03
2017-01-16T12:45:38.369Z,0
2017-01-16T12:47:00.813Z,0.07
2017-01-16T12:48:22.872Z,0.08
2017-01-16T12:49:44.929Z,0.08
2017-01-16T12:51:06.579Z,0.08
2017-01-16T12:52:28.666Z,0.1
2017-01-16T12:53:51.087Z,0.1
2017-01-16T12:55:14.287Z,0.11
2017-01-16T12:56:37.150Z,0.02
2017-01-16T12:57:59.798Z,0.11
2017-01-16T12:59:22.449Z,0.13
2017-01-16T13:00:45.295Z,0.17
2017-01-16T13:02:07.807Z,0.17
2017-01-16T13:03:29.473Z,0.18
2017-01-16T13:04:51.575Z,0.15
2017-01-16T13:06:14.038Z,0.18
2017-01-16T13:07:36.471Z,0.32
2017-01-16T13:08:58.117Z,0.32
2017-01-16T13:10:20.680Z,0.23
2017-01-16T13:11:43.141Z,0.26
2017-01-16T13:13:05.202Z,0.29
2017-01-16T13:14:27.268Z,0.31
2017-01-16T13:15:49.705Z,0.31
2017-01-16T13:17:12.152Z,0.29
2017-01-16T13:18:33.805Z,0.28
2017-01-16T13:19:56.269Z,0.21
2017-01-16T13:21:18.716Z,0.21
2017-01-16T13:22:41.184Z,0.26
2017-01-16T13:24:03.389Z,0.21
2017-01-16T13:25:25.048Z,0.24
2017-01-16T13:26:47.650Z,0.32
2017-01-16T13:28:10.211Z,0.28
2017-01-16T13:29:31.910Z,0.31
2017-01-16T13:30:53.980Z,0.29
2017-01-16T13:32:16.871Z,0.28
2017-01-16T13:33:39.328Z,0.31
2017-01-16T13:35:01.392Z,0.26
2017-01-16T13:36:23.532Z,0.32
2017-01-16T13:37:46.395Z,0.21
2017-01-16T13:39:08.218Z,0.23
2017-01-16T13:40:30.781Z,0.23
2017-01-16T13:41:53.267Z,0.29
2017-01-16T13:43:15.724Z,0.21
2017-01-16T13:44:38.655Z,0.26
2017-01-16T13:46:00.706Z,0.28
2017-01-16T13:47:22.363Z,0.17
2017-01-16T13:48:44.803Z,0.29
2017-01-16T13:50:06.863Z,0.23
2017-01-16T13:51:28.914Z,0.32
2017-01-16T13:52:50.632Z,0.47
2017-01-16T13:54:13.482Z,0.47
2017-01-16T13:55:35.131Z,0.53
2017-01-16T13:56:57.313Z,0.41
2017-01-16T13:58:18.981Z,0.41
2017-01-16T13:59:41.422Z,0.29
2017-01-16T14:01:02.667Z,0.26
2017-01-16T14:02:25.410Z,0.28
2017-01-16T14:03:47.856Z,0.28
2017-01-16T14:05:10.431Z,0.08
2017-01-16T14:06:32.873Z,0.17
2017-01-16T14:07:55.343Z,0.15
2017-01-16T14:09:17.800Z,0.17
2017-01-16T14:10:40.272Z,0.11
2017-01-16T14:12:02.328Z,0.07
2017-01-16T14:13:24.873Z,0.04
2017-01-16T14:14:47.711Z,0.11
2017-01-16T14:16:09.890Z,0.08
2017-01-16T14:17:31.974Z,0.04
2017-01-16T14:18:54.649Z,0.15
2017-01-16T14:20:17.105Z,0.08
2017-01-16T14:21:39.547Z,0.08
2017-01-16T14:23:02.024Z,-0.03
2017-01-16T14:24:24.277Z,-0.04
2017-01-16T14:25:46.734Z,-0.1
2017-01-16T14:27:08.786Z,-0.16
2017-01-16T14:28:31.318Z,-0.11
2017-01-16T14:29:53.812Z,-0.15
2017-01-16T14:31:16.506Z,-0.15
2017-01-16T14:32:39.375Z,-0.08
2017-01-16T14:34:02.292Z,-0.21
2017-01-16T14:35:24.349Z,-0.16
2017-01-16T14:36:46.126Z,-0.19
2017-01-16T14:38:08.161Z,-0.22
2017-01-16T14:39:30.298Z,-0.29
2017-01-16T14:40:52.759Z,-0.37
2017-01-16T14:42:15.356Z,-0.34
2017-01-16T14:43:38.227Z,-0.39
2017-01-16T14:45:00.312Z,-0.34
2017-01-16T14:46:22.944Z,-0.4
2017-01-16T14:47:44.844Z,-0.51
2017-01-16T14:49:06.888Z,-0.54
2017-01-16T14:50:28.946Z,-0.57
2017-01-16T14:51:51.425Z,-0.64
2017-01-16T14:53:12.667Z,-0.7
2017-01-16T14:54:35.133Z,-0.76
2017-01-16T14:55:57.731Z,-0.79
2017-01-16T14:57:19.849Z,-0.75
2017-01-16T14:58:41.901Z,-0.91
2017-01-16T15:00:04.364Z,-0.79
2017-01-16T15:01:26.007Z,-0.89
2017-01-16T15:02:48.567Z,-0.89
2017-01-16T15:04:11.079Z,-0.91
2017-01-16T15:05:33.526Z,-0.8
2017-01-16T15:06:56.123Z,-0.94
2017-01-16T15:08:18.971Z,-1.05
2017-01-16T15:09:41.426Z,-1.07
2017-01-16T15:11:04.090Z,-1.19
2017-01-16T15:12:26.929Z,-1.22
2017-01-16T15:13:49.030Z,-1.33
2017-01-16T15:15:11.483Z,-1.33
2017-01-16T15:16:33.623Z,-1.52
2017-01-16T15:17:56.139Z,-1.45
2017-01-16T15:19:18.596Z,-1.58
2017-01-16T15:20:41.440Z,-1.64
2017-01-16T15:22:03.939Z,-1.64
2017-01-16T15:23:25.998Z,-1.88
2017-01-16T15:24:47.644Z,-1.84
2017-01-16T15:26:10.477Z,-1.9
2017-01-16T15:27:32.321Z,-1.91
2017-01-16T15:28:54.378Z,-1.88
2017-01-16T15:30:16.087Z,-2
2017-01-16T15:31:38.567Z,-2.06
2017-01-16T15:33:01.032Z,-2.09
2017-01-16T15:34:23.473Z,-2.15
2017-01-16T15:35:45.610Z,-2.24
2017-01-16T15:37:07.659Z,-2.23
2017-01-16T15:38:30.090Z,-2.29
2017-01-16T15:39:52.526Z,-2.42
2017-01-16T15:41:14.980Z,-2.43
2017-01-16T15:42:37.997Z,-2.43
2017-01-16T15:44:00.811Z,-2.56
2017-01-16T15:45:22.992Z,-2.55
2017-01-16T15:46:45.431Z,-2.63
2017-01-16T15:48:08.312Z,-2.73
2017-01-16T15:49:30.380Z,-2.71
2017-01-16T15:50:52.451Z,-2.78
2017-01-16T15:52:14.911Z,-2.79
2017-01-16T15:53:37.105Z,-2.82
2017-01-16T15:54:59.160Z,-2.85
2017-01-16T15:56:21.838Z,-2.81
2017-01-16T15:57:44.370Z,-2.86
2017-01-16T15:59:06.432Z,-2.99
2017-01-16T16:00:28.864Z,-3
2017-01-16T16:01:51.020Z,-3
2017-01-16T16:03:13.093Z,-2.99
2017-01-16T16:04:35.187Z,-2.99
2017-01-16T16:05:57.393Z,-3.06
2017-01-16T16:07:19.454Z,-3.07
2017-01-16T16:08:42.020Z,-3.23
2017-01-16T16:10:04.090Z,-3.2
2017-01-16T16:11:27.203Z,-3.25
2017-01-16T16:12:49.311Z,-3.31
2017-01-16T16:14:10.567Z,-3.31
2017-01-16T16:15:33.429Z,-3.45
2017-01-16T16:16:56.364Z,-3.42
2017-01-16T16:18:18.847Z,-3.49
2017-01-16T16:19:40.969Z,-3.45
2017-01-16T16:21:03.013Z,-3.46
2017-01-16T16:22:24.660Z,-3.52
2017-01-16T16:23:46.703Z,-3.53
2017-01-16T16:25:09.409Z,-3.62
2017-01-16T16:26:31.574Z,-3.57
2017-01-16T16:27:54.056Z,-3.66
2017-01-16T16:29:16.623Z,-3.72
2017-01-16T16:30:38.970Z,-3.76
2017-01-16T16:32:01.831Z,-3.76
2017-01-16T16:33:23.889Z,-3.78
2017-01-16T16:34:45.952Z,-3.81
2017-01-16T16:36:08.918Z,-3.76
2017-01-16T16:37:31.398Z,-3.78
2017-01-16T16:38:53.030Z,-3.75
2017-01-16T16:40:15.499Z,-3.81
2017-01-16T16:41:37.957Z,-3.94
2017-01-16T16:43:00.994Z,-3.81
2017-01-16T16:44:23.817Z,-3.83
2017-01-16T16:45:46.540Z,-3.85
2017-01-16T16:47:07.796Z,-3.85
2017-01-16T16:48:29.989Z,-3.91
2017-01-16T16:49:52.446Z,-3.86
2017-01-16T16:51:14.902Z,-3.9
2017-01-16T16:52:37.398Z,-3.93
2017-01-16T16:53:59.479Z,-3.93
2017-01-16T16:55:22.361Z,-3.93
2017-01-16T16:56:44.034Z,-3.96
2017-01-16T16:58:05.703Z,-3.93
2017-01-16T16:59:27.817Z,-3.91
2017-01-16T17:00:50.661Z,-4
2017-01-16T17:02:13.162Z,-3.99
2017-01-16T17:03:35.218Z,-3.96
2017-01-16T17:04:57.705Z,-3.97
2017-01-16T17:06:20.268Z,-4.01
2017-01-16T17:07:42.304Z,-4.07
2017-01-16T17:09:04.365Z,-4.14
2017-01-16T17:10:27.226Z,-4.17
2017-01-16T17:11:49.285Z,-4.17
2017-01-16T17:13:11.751Z,-4.22
2017-01-16T17:14:34.867Z,-4.24
2017-01-16T17:15:57.422Z,-4.38
2017-01-16T17:17:19.077Z,-4.33
2017-01-16T17:18:41.979Z,-4.33
2017-01-16T17:20:04.037Z,-4.29
2017-01-16T17:21:26.102Z,-4.3
2017-01-16T17:22:48.549Z,-4.32
2017-01-16T17:24:11.018Z,-4.33
2017-01-16T17:25:32.696Z,-4.28
2017-01-16T17:26:54.765Z,-4.33
2017-01-16T17:28:16.467Z,-4.38
2017-01-16T17:29:38.919Z,-4.38
2017-01-16T17:31:01.105Z,-4.36
2017-01-16T17:32:23.575Z,-4.36
2017-01-16T17:33:46.049Z,-4.39
2017-01-16T17:35:08.477Z,-4.38
2017-01-16T17:36:30.948Z,-4.43
2017-01-16T17:37:53.887Z,-4.43
2017-01-16T17:39:16.749Z,-4.53
2017-01-16T17:40:39.630Z,-4.49
2017-01-16T17:42:02.192Z,-4.51
2017-01-16T17:43:24.370Z,-4.58
2017-01-16T17:44:46.497Z,-4.65
2017-01-16T17:46:08.556Z,-4.6
2017-01-16T17:47:30.687Z,-4.67